Time;durP1;ratioP1;P1;durP2;ratioP2;P2;SDS_P1;SDS_P2;PMS_P1;PMS_P2;Temp;Humidity;BMP_temperature;BMP_pressure;BME280_temperature;BME280_humidity;BME280_pressure;Samples;Min_cycle;Max_cycle;Signal;HPM_P1;HPM_P2
2024/04/11 00:00:24;;;;;;;3.37;2.30;;;10.20;99.90;;;;;;5491012;26;20502;-69
2024/04/11 00:02:51;;;;;;;5.40;2.50;;;10.10;99.90;;;;;;5491048;26;20431;-68
2024/04/11 00:05:19;;;;;;;2.93;2.70;;;10.10;99.90;;;;;;5490963;26;20479;-69
2024/04/11 00:07:45;;;;;;;2.20;2.10;;;10.10;99.90;;;;;;5491061;26;20730;-69
2024/04/11 00:10:16;;;;;;;4.13;2.90;;;10.10;99.90;;;;;;5490876;26;20521;-69
2024/04/11 00:12:41;;;;;;;4.37;2.87;;;9.80;99.90;;;;;;5491122;26;20523;-69
2024/04/11 00:15:10;;;;;;;3.23;3.00;;;9.80;99.90;;;;;;5490683;26;20488;-69
2024/04/11 00:17:36;;;;;;;3.93;3.53;;;9.90;99.90;;;;;;5490706;26;20214;-69
2024/04/11 00:20:05;;;;;;;4.80;2.70;;;9.80;99.90;;;;;;5490749;26;20495;-69
2024/04/11 00:22:31;;;;;;;3.10;2.80;;;9.80;99.90;;;;;;5490754;26;20210;-69
2024/04/11 00:24:59;;;;;;;3.63;3.13;;;9.70;99.90;;;;;;5490611;26;20483;-69
2024/04/11 00:27:28;;;;;;;3.10;2.90;;;9.80;99.90;;;;;;5490706;26;20206;-69
2024/04/11 00:29:56;;;;;;;2.93;2.70;;;9.80;99.90;;;;;;5490693;26;20443;-69
2024/04/11 00:32:23;;;;;;;3.03;2.80;;;9.90;99.90;;;;;;5490659;26;20450;-69
2024/04/11 00:34:53;;;;;;;3.23;2.93;;;9.80;99.90;;;;;;5490496;26;20415;-69
2024/04/11 00:37:22;;;;;;;4.07;2.70;;;9.80;99.90;;;;;;5490513;26;20914;-69
2024/04/11 00:39:50;;;;;;;3.63;3.40;;;9.80;99.90;;;;;;5490501;26;20498;-69
2024/04/11 00:42:17;;;;;;;4.17;3.30;;;9.80;99.90;;;;;;5490507;26;20923;-69
2024/04/11 00:44:48;;;;;;;3.00;2.80;;;9.80;99.90;;;;;;5490476;26;20427;-70
2024/04/11 00:47:14;;;;;;;3.40;3.10;;;9.80;99.90;;;;;;5490459;26;20423;-69
2024/04/11 00:49:46;;;;;;;3.50;3.20;;;9.90;99.90;;;;;;5490346;26;20431;-69
2024/04/11 00:52:13;;;;;;;9.23;2.87;;;9.80;99.90;;;;;;5490410;26;20485;-69
2024/04/11 00:54:42;;;;;;;3.37;2.97;;;9.70;99.90;;;;;;5490220;26;20478;-69
2024/04/11 00:57:08;;;;;;;3.50;3.20;;;9.70;99.90;;;;;;5490123;26;20933;-69
2024/04/11 00:59:38;;;;;;;3.37;3.07;;;9.60;99.90;;;;;;5490205;26;20471;-69
2024/04/11 01:02:08;;;;;;;3.20;3.00;;;9.60;99.90;;;;;;5490249;26;20254;-69
2024/04/11 01:04:36;;;;;;;3.43;3.13;;;9.60;99.90;;;;;;5490068;26;20427;-69
2024/04/11 01:07:06;;;;;;;6.27;3.67;;;9.50;99.90;;;;;;5490204;26;20439;-69
2024/04/11 01:09:36;;;;;;;6.20;3.93;;;9.20;99.90;;;;;;5490084;26;20506;-69
2024/04/11 01:12:03;;;;;;;3.90;3.60;;;9.20;99.90;;;;;;5490085;26;20495;-69
2024/04/11 01:14:31;;;;;;;4.47;3.40;;;9.30;99.90;;;;;;5489908;26;20498;-69
2024/04/11 01:16:57;;;;;;;3.20;3.00;;;9.40;99.90;;;;;;5489735;26;20431;-69
2024/04/11 01:19:28;;;;;;;5.43;3.20;;;9.20;99.90;;;;;;5490010;26;20804;-69
2024/04/11 01:21:55;;;;;;;3.73;3.33;;;9.10;99.90;;;;;;5490015;26;20206;-69
2024/04/11 01:24:27;;;;;;;4.27;3.30;;;9.20;99.90;;;;;;5489900;26;20439;-69
2024/04/11 01:26:52;;;;;;;4.47;3.53;;;9.20;99.90;;;;;;5489119;26;20443;-69
2024/04/11 01:29:20;;;;;;;6.97;3.27;;;9.20;99.90;;;;;;5490083;26;20503;-69
2024/04/11 01:31:46;;;;;;;7.60;3.30;;;9.30;99.90;;;;;;5490075;26;20217;-69
2024/04/11 01:34:14;;;;;;;5.40;3.57;;;9.20;99.90;;;;;;5489834;26;20465;-69
2024/04/11 01:36:40;;;;;;;3.63;2.93;;;9.20;99.90;;;;;;5489747;26;20210;-69
2024/04/11 01:39:09;;;;;;;4.03;3.53;;;9.20;99.90;;;;;;5489585;26;20511;-69
2024/04/11 01:41:37;;;;;;;4.00;3.60;;;9.20;99.90;;;;;;5489589;26;20369;-69
2024/04/11 01:44:05;;;;;;;5.07;3.20;;;9.20;99.90;;;;;;5489728;26;20497;-69
2024/04/11 01:46:31;;;;;;;3.93;3.63;;;9.20;99.90;;;;;;5489496;26;20471;-69
2024/04/11 01:48:59;;;;;;;4.60;3.00;;;9.20;99.90;;;;;;5489571;26;20946;-69
2024/04/11 01:51:25;;;;;;;4.33;3.10;;;9.10;99.90;;;;;;5489397;26;20447;-69
2024/04/11 01:53:53;;;;;;;6.47;3.90;;;9.10;99.90;;;;;;5489227;26;20491;-69
2024/04/11 01:56:19;;;;;;;4.90;3.43;;;9.20;99.90;;;;;;5489421;26;20217;-69
2024/04/11 01:58:50;;;;;;;5.40;3.23;;;9.20;99.90;;;;;;5489339;26;20461;-69
2024/04/11 02:01:19;;;;;;;3.70;3.43;;;9.20;99.90;;;;;;5489358;26;20747;-69
2024/04/11 02:03:48;;;;;;;5.17;3.70;;;9.20;99.90;;;;;;5489241;26;20418;-69
2024/04/11 02:06:13;;;;;;;4.70;4.07;;;9.10;99.90;;;;;;5489004;26;20444;-69
2024/04/11 02:08:42;;;;;;;4.10;3.60;;;9.10;99.90;;;;;;5489193;26;20431;-69
2024/04/11 02:11:07;;;;;;;3.70;3.40;;;9.10;99.90;;;;;;5488922;26;20210;-69
2024/04/11 02:13:38;;;;;;;4.00;3.60;;;9.10;99.90;;;;;;5489319;26;20812;-69
2024/04/11 02:16:06;;;;;;;4.40;3.90;;;9.10;99.90;;;;;;5488984;26;20210;-69
2024/04/11 02:18:35;;;;;;;5.93;4.30;;;9.10;99.90;;;;;;5488871;26;20467;-69
2024/04/11 02:21:00;;;;;;;5.40;3.13;;;9.10;99.90;;;;;;5488833;26;20443;-69
2024/04/11 02:23:30;;;;;;;4.80;4.00;;;9.10;99.90;;;;;;5488787;26;20507;-69
2024/04/11 02:25:56;;;;;;;3.73;3.43;;;9.00;99.90;;;;;;5488706;26;20206;-70
2024/04/11 02:28:25;;;;;;;3.73;3.50;;;8.90;99.90;;;;;;5488688;26;20569;-69
2024/04/11 02:30:51;;;;;;;10.50;3.50;;;8.90;99.90;;;;;;5488657;26;21036;-69
2024/04/11 02:33:25;;;;;;;6.97;4.30;;;8.70;99.90;;;;;;5488562;26;20427;-69
2024/04/11 02:35:50;;;;;;;4.60;3.17;;;8.70;99.90;;;;;;5488902;26;20465;-69
2024/04/11 02:38:18;;;;;;;4.47;3.47;;;8.70;99.90;;;;;;5490759;26;20455;-69
2024/04/11 02:40:46;;;;;;;3.50;3.30;;;8.70;99.90;;;;;;5492724;26;20214;-69
2024/04/11 02:43:15;;;;;;;4.17;3.80;;;8.70;99.90;;;;;;5492662;26;20419;-69
2024/04/11 02:45:40;;;;;;;4.90;3.17;;;8.70;99.90;;;;;;5492132;26;20450;-69
2024/04/11 02:48:09;;;;;;;3.87;3.57;;;8.70;99.90;;;;;;5491997;26;20451;-69
2024/04/11 02:50:37;;;;;;;4.07;3.77;;;8.70;99.90;;;;;;5492120;26;20210;-69
2024/04/11 02:53:09;;;;;;;6.27;4.07;;;8.60;99.90;;;;;;5492065;26;20453;-69
2024/04/11 02:55:35;;;;;;;4.63;3.50;;;8.60;99.90;;;;;;5492113;26;20491;-69
2024/04/11 02:58:03;;;;;;;4.37;3.73;;;8.60;99.90;;;;;;5491949;26;20423;-69
2024/04/11 03:00:29;;;;;;;5.00;4.23;;;8.60;99.90;;;;;;5491937;26;20210;-69
2024/04/11 03:03:00;;;;;;;3.57;3.37;;;8.50;99.90;;;;;;5491898;26;20450;-69
2024/04/11 03:05:26;;;;;;;5.43;3.70;;;8.40;99.90;;;;;;5491900;26;20439;-69
2024/04/11 03:07:57;;;;;;;4.00;3.70;;;8.40;99.90;;;;;;5491823;26;20572;-69
2024/04/11 03:10:22;;;;;;;8.73;4.20;;;8.40;99.90;;;;;;5492012;26;20217;-69
2024/04/11 03:12:51;;;;;;;4.03;3.70;;;8.30;99.90;;;;;;5491725;26;20877;-69
2024/04/11 03:15:18;;;;;;;5.17;4.40;;;8.30;99.90;;;;;;5491618;26;20270;-69
2024/04/11 03:17:46;;;;;;;5.10;3.73;;;8.30;99.90;;;;;;5491595;26;20483;-69
2024/04/11 03:20:17;;;;;;;4.10;3.80;;;8.30;99.90;;;;;;5491569;26;20455;-69
2024/04/11 03:22:45;;;;;;;5.37;3.73;;;8.20;99.90;;;;;;5491696;26;20451;-69
2024/04/11 03:25:14;;;;;;;4.50;4.10;;;8.20;99.90;;;;;;5491583;26;20459;-69
2024/04/11 03:27:42;;;;;;;4.00;3.50;;;8.30;99.90;;;;;;5491449;26;20418;-69
2024/04/11 03:30:08;;;;;;;4.97;4.17;;;8.20;99.90;;;;;;5491572;26;20451;-69
2024/04/11 03:32:36;;;;;;;8.63;4.27;;;8.20;99.90;;;;;;5491535;26;20458;-69
2024/04/11 03:35:04;;;;;;;4.50;4.10;;;8.10;99.90;;;;;;5491425;26;20808;-69
2024/04/11 03:37:32;;;;;;;6.07;4.30;;;7.90;99.90;;;;;;5491324;26;20454;-69
2024/04/11 03:39:58;;;;;;;6.10;4.30;;;7.70;99.90;;;;;;5491849;26;20419;-69
2024/04/11 03:42:29;;;;;;;4.33;3.60;;;7.60;99.90;;;;;;5491210;26;20832;-69
2024/04/11 03:45:10;;;;;;;4.40;4.10;;;7.50;99.90;;;;;;5491462;26;20248;-69
2024/04/11 03:47:42;;;;;;;4.50;4.10;;;7.50;99.90;;;;;;5491232;26;20815;-69
2024/04/11 03:50:11;;;;;;;4.30;3.77;;;7.50;99.90;;;;;;5490552;26;20462;-69
2024/04/11 03:52:37;;;;;;;4.47;4.13;;;7.60;99.90;;;;;;5491095;26;20423;-69
2024/04/11 03:55:05;;;;;;;7.07;4.33;;;7.60;99.90;;;;;;5491252;26;20495;-68
2024/04/11 03:57:33;;;;;;;8.40;4.33;;;7.50;99.90;;;;;;5491075;26;20568;-69
2024/04/11 04:00:07;;;;;;;6.03;5.37;;;7.40;99.90;;;;;;5491192;26;20446;-69
2024/04/11 04:02:32;;;;;;;8.20;6.23;;;7.20;99.90;;;;;;5491084;26;20486;-69
2024/04/11 04:05:01;;;;;;;8.77;6.97;;;7.20;99.90;;;;;;5490978;26;20423;-69
2024/04/11 04:07:28;;;;;;;6.80;6.13;;;7.30;99.90;;;;;;5491051;26;20244;-69
2024/04/11 04:09:58;;;;;;;8.20;7.60;;;7.30;99.90;;;;;;5490797;26;20799;-69
2024/04/11 04:12:24;;;;;;;9.13;8.30;;;7.40;99.90;;;;;;5490843;26;20434;-69
2024/04/11 04:14:55;;;;;;;8.63;6.20;;;7.30;99.90;;;;;;5490852;26;20490;-69
2024/04/11 04:17:23;;;;;;;6.30;5.70;;;7.10;99.90;;;;;;5491397;26;20244;-69
2024/04/11 04:19:52;;;;;;;5.80;5.27;;;7.00;99.90;;;;;;5490765;26;20476;-69
2024/04/11 04:22:17;;;;;;;5.00;4.60;;;7.10;99.90;;;;;;5490716;26;20499;-69
2024/04/11 04:24:50;;;;;;;5.20;4.70;;;7.20;99.90;;;;;;5490901;26;20435;-68
2024/04/11 04:27:19;;;;;;;12.60;6.63;;;7.10;99.90;;;;;;5490798;26;20210;-69
2024/04/11 04:29:44;;;;;;;6.37;5.50;;;7.20;99.90;;;;;;5490584;26;20525;-69
2024/04/11 04:32:16;;;;;;;5.97;5.37;;;7.40;99.90;;;;;;5490563;26;20459;-69
2024/04/11 04:34:42;;;;;;;5.43;4.73;;;7.50;99.90;;;;;;5490582;26;20655;-69
2024/04/11 04:37:11;;;;;;;4.60;4.20;;;7.50;99.90;;;;;;5490601;26;20443;-69
2024/04/11 04:39:41;;;;;;;4.90;4.50;;;7.40;99.90;;;;;;5490352;26;20586;-69
2024/04/11 04:42:12;;;;;;;8.87;5.20;;;7.40;99.90;;;;;;5490524;26;20559;-69
2024/04/11 04:44:39;;;;;;;5.10;4.70;;;7.40;99.90;;;;;;5490349;26;20420;-69
2024/04/11 04:47:16;;;;;;;6.07;5.30;;;7.50;99.90;;;;;;5490278;26;20515;-69
2024/04/11 04:49:45;;;;;;;5.63;4.70;;;7.40;99.90;;;;;;5490479;26;20746;-69
2024/04/11 04:52:13;;;;;;;9.00;5.00;;;7.30;99.90;;;;;;5490390;26;20510;-69
2024/04/11 04:54:39;;;;;;;7.60;4.43;;;7.20;99.90;;;;;;5490057;26;20511;-69
2024/04/11 04:57:07;;;;;;;9.17;5.13;;;7.10;99.90;;;;;;5490284;26;20423;-69
2024/04/11 04:59:33;;;;;;;4.37;4.00;;;7.20;99.90;;;;;;5489648;26;20221;-69
2024/04/11 05:02:03;;;;;;;6.30;5.10;;;7.30;99.90;;;;;;5489486;26;20451;-69
2024/04/11 05:04:29;;;;;;;6.00;5.00;;;7.40;99.90;;;;;;5490069;26;20248;-69
2024/04/11 05:07:00;;;;;;;7.45;5.50;;;7.50;99.90;;;;;;5490000;26;21039;-68
2024/04/11 05:09:26;;;;;;;5.50;5.00;;;7.60;99.90;;;;;;5490045;26;20294;-68
2024/04/11 05:11:54;;;;;;;6.50;5.47;;;7.70;99.90;;;;;;5489808;26;20962;-69
2024/04/11 05:14:20;;;;;;;5.20;4.70;;;7.90;99.90;;;;;;5489820;26;20427;-69
2024/04/11 05:16:50;;;;;;;7.73;4.90;;;8.00;99.90;;;;;;5489941;26;20479;-69
2024/04/11 05:19:17;;;;;;;7.70;5.60;;;8.10;99.90;;;;;;5489705;26;20206;-69
2024/04/11 05:21:46;;;;;;;13.40;5.80;;;8.20;99.90;;;;;;5489850;26;21006;-69
2024/04/11 05:24:15;;;;;;;6.20;5.00;;;8.30;99.90;;;;;;5489643;26;20423;-69
2024/04/11 05:26:48;;;;;;;11.40;5.27;;;8.40;99.90;;;;;;5489677;26;20556;-69
2024/04/11 05:29:17;;;;;;;5.80;5.30;;;8.50;99.90;;;;;;5489585;26;21002;-69
2024/04/11 05:31:42;;;;;;;5.10;4.60;;;8.70;99.90;;;;;;5489672;26;20423;-69
2024/04/11 05:34:13;;;;;;;7.10;5.40;;;8.90;99.90;;;;;;5489493;26;20942;-69
2024/04/11 05:36:41;;;;;;;14.70;6.37;;;9.20;99.90;;;;;;5489492;26;20709;-68
2024/04/11 05:39:09;;;;;;;15.60;6.47;;;9.40;99.90;;;;;;5489459;26;20424;-68
2024/04/11 05:41:37;;;;;;;7.13;6.30;;;9.60;99.90;;;;;;5489318;26;20471;-69
2024/04/11 05:44:06;;;;;;;7.57;6.17;;;9.90;99.90;;;;;;5489290;26;20477;-69
2024/04/11 05:46:34;;;;;;;7.77;6.83;;;10.20;99.90;;;;;;5489161;26;20439;-69
2024/04/11 05:49:04;;;;;;;7.73;6.40;;;10.50;99.90;;;;;;5489255;26;20451;-69
2024/04/11 05:51:30;;;;;;;7.40;6.57;;;10.70;99.90;;;;;;5489220;26;20486;-69
2024/04/11 05:53:58;;;;;;;9.00;7.07;;;10.80;99.90;;;;;;5489224;26;20973;-69
2024/04/11 05:56:23;;;;;;;7.90;7.20;;;11.10;99.90;;;;;;5489386;26;20326;-69
2024/04/11 05:58:54;;;;;;;13.40;6.40;;;11.30;99.90;;;;;;5489044;26;20439;-69
2024/04/11 06:01:20;;;;;;;10.60;6.23;;;11.50;99.90;;;;;;5489084;26;20206;-69
2024/04/11 06:03:50;;;;;;;10.07;7.13;;;11.60;99.90;;;;;;5489010;26;20970;-69
2024/04/11 06:06:19;;;;;;;7.63;6.93;;;11.70;99.90;;;;;;5489029;26;20535;-69
2024/04/11 06:08:48;;;;;;;8.47;5.63;;;11.90;99.90;;;;;;5489025;26;20447;-69
2024/04/11 06:11:16;;;;;;;7.97;6.30;;;12.10;99.90;;;;;;5489212;26;20502;-68
2024/04/11 06:13:46;;;;;;;6.80;5.93;;;12.40;99.90;;;;;;5492443;26;20514;-69
2024/04/11 06:16:15;;;;;;;8.53;6.37;;;12.60;99.90;;;;;;5492584;26;20459;-68
2024/04/11 06:18:43;;;;;;;5.83;5.20;;;12.80;99.90;;;;;;5492359;26;20427;-69
2024/04/11 06:21:11;;;;;;;6.90;5.80;;;13.00;99.90;;;;;;5492372;26;20563;-69
2024/04/11 06:23:39;;;;;;;5.70;5.20;;;13.20;99.90;;;;;;5492069;26;20443;-69
2024/04/11 06:26:10;;;;;;;7.33;5.40;;;13.30;99.90;;;;;;5492066;26;20447;-68
2024/04/11 06:28:38;;;;;;;6.67;5.43;;;13.40;99.90;;;;;;5492259;26;20535;-69
2024/04/11 06:31:04;;;;;;;6.60;5.60;;;13.50;99.90;;;;;;5492707;26;20812;-69
2024/04/11 06:33:40;;;;;;;5.77;5.27;;;13.60;99.90;;;;;;5491584;26;20466;-69
2024/04/11 06:36:07;;;;;;;7.53;4.47;;;13.70;99.90;;;;;;5488030;26;20802;-69
2024/04/11 06:38:35;;;;;;;4.80;4.40;;;13.70;99.90;;;;;;5491459;26;20462;-69
2024/04/11 06:41:02;;;;;;;6.00;4.50;;;13.80;99.90;;;;;;5486714;26;20529;-69
2024/04/11 06:43:31;;;;;;;5.97;4.37;;;14.00;99.90;;;;;;5491265;26;20475;-69
2024/04/11 06:45:57;;;;;;;5.20;4.30;;;14.10;99.90;;;;;;5491311;26;20691;-68
2024/04/11 06:48:25;;;;;;;4.60;4.13;;;14.30;99.90;;;;;;5490082;26;20475;-68
2024/04/11 06:50:56;;;;;;;8.50;4.43;;;14.40;99.90;;;;;;5489826;26;20588;-69
2024/04/11 06:53:24;;;;;;;7.80;4.23;;;14.50;99.90;;;;;;5490825;26;20482;-69
2024/04/11 06:55:49;;;;;;;6.73;3.97;;;14.70;99.90;;;;;;5489085;26;20524;-69
2024/04/11 06:58:22;;;;;;;5.37;4.00;;;14.80;99.90;;;;;;5490513;26;20459;-69
2024/04/11 07:00:58;;;;;;;5.23;3.97;;;14.90;99.90;;;;;;5490486;26;20249;-69
2024/04/11 07:03:27;;;;;;;3.80;3.50;;;15.00;99.90;;;;;;5489254;26;21039;-69
2024/04/11 07:05:56;;;;;;;6.77;4.40;;;14.90;99.90;;;;;;5490441;26;20461;-69
2024/04/11 07:08:29;;;;;;;4.73;3.80;;;14.90;99.90;;;;;;5490346;26;20461;-68
2024/04/11 07:10:58;;;;;;;7.50;3.70;;;14.90;99.90;;;;;;5489924;26;20466;-69
2024/04/11 07:13:27;;;;;;;7.60;3.87;;;14.90;99.90;;;;;;5490162;26;20476;-67
2024/04/11 07:15:58;;;;;;;4.83;3.00;;;14.90;99.90;;;;;;5484790;26;20533;-67
2024/04/11 07:18:38;;;;;;;7.83;4.50;;;15.00;99.90;;;;;;5488920;26;20499;-68
2024/04/11 07:21:07;;;;;;;6.80;4.73;;;15.20;99.90;;;;;;5486537;26;20462;-65
2024/04/11 07:23:37;;;;;;;9.17;4.33;;;15.30;99.90;;;;;;5485691;26;20492;-70
2024/04/11 07:26:07;;;;;;;8.10;3.50;;;15.40;99.90;;;;;;5489788;26;20518;-70
2024/04/11 07:28:36;;;;;;;4.40;3.63;;;15.50;99.90;;;;;;5490214;26;20521;-67
2024/04/11 07:31:03;;;;;;;5.63;3.83;;;15.70;99.90;;;;;;5489849;26;20910;-67
2024/04/11 07:33:31;;;;;;;5.10;3.50;;;15.60;99.90;;;;;;5489838;26;20844;-69
2024/04/11 07:35:58;;;;;;;6.50;3.23;;;15.70;99.90;;;;;;5490078;26;20545;-66
2024/04/11 07:38:30;;;;;;;5.43;3.80;;;16.00;99.90;;;;;;5490091;26;20462;-65
2024/04/11 07:40:58;;;;;;;3.70;2.77;;;16.30;99.90;;;;;;5489959;26;20510;-62
2024/04/11 07:43:27;;;;;;;6.87;4.10;;;16.50;99.90;;;;;;5489822;26;20459;-71
2024/04/11 07:45:53;;;;;;;5.43;3.40;;;16.70;99.90;;;;;;5489893;26;20570;-71
2024/04/11 07:48:23;;;;;;;4.30;3.90;;;16.70;99.90;;;;;;5489713;26;20494;-67
2024/04/11 07:50:50;;;;;;;6.60;3.77;;;16.80;99.90;;;;;;5487255;26;20237;-67
2024/04/11 07:53:18;;;;;;;4.10;3.63;;;16.80;99.90;;;;;;5489737;26;20540;-67
2024/04/11 07:55:49;;;;;;;4.40;3.00;;;16.80;99.90;;;;;;5490678;26;20526;-67
2024/04/11 07:58:19;;;;;;;5.90;2.83;;;16.60;99.90;;;;;;5491030;26;20849;-66
2024/04/11 08:00:47;;;;;;;5.43;3.70;;;16.70;99.90;;;;;;5491025;26;20506;-66
2024/04/11 08:03:17;;;;;;;4.83;3.37;;;16.60;99.90;;;;;;5490352;26;20503;-65
2024/04/11 08:05:43;;;;;;;7.00;3.47;;;16.50;99.90;;;;;;5490516;26;20458;-65
2024/04/11 08:08:12;;;;;;;3.83;3.23;;;16.60;99.90;;;;;;5490805;26;20508;-66
2024/04/11 08:10:38;;;;;;;7.17;2.87;;;16.70;99.90;;;;;;5490594;26;20206;-64
2024/04/11 08:13:10;;;;;;;2.87;2.57;;;16.80;99.90;;;;;;5490769;26;20463;-68
2024/04/11 08:15:36;;;;;;;4.00;2.57;;;17.00;99.90;;;;;;5490617;26;20562;-66
2024/04/11 08:18:04;;;;;;;4.07;3.00;;;17.10;99.90;;;;;;5490445;26;20455;-64
2024/04/11 08:20:30;;;;;;;5.17;2.83;;;17.20;99.90;;;;;;5490539;26;20256;-65
2024/04/11 08:22:58;;;;;;;6.63;2.50;;;17.20;99.90;;;;;;5490437;26;20447;-68
2024/04/11 08:25:24;;;;;;;4.40;2.20;;;17.20;99.90;;;;;;5490337;26;20561;-63
2024/04/11 08:27:54;;;;;;;2.33;1.80;;;17.20;99.90;;;;;;5490543;26;20458;-66
2024/04/11 08:30:22;;;;;;;5.00;1.93;;;17.10;99.90;;;;;;5490330;26;20218;-65
2024/04/11 08:32:51;;;;;;;2.93;2.00;;;17.20;99.90;;;;;;5489891;26;20648;-65
2024/04/11 08:35:17;;;;;;;3.43;1.70;;;17.10;99.90;;;;;;5490059;26;20451;-66
2024/04/11 08:37:46;;;;;;;2.47;1.93;;;17.20;99.90;;;;;;5490284;26;20451;-67
2024/04/11 08:40:12;;;;;;;1.93;1.70;;;17.10;99.90;;;;;;5490140;26;20782;-69
2024/04/11 08:42:41;;;;;;;2.77;1.53;;;17.00;99.90;;;;;;5490199;26;20491;-63
2024/04/11 08:45:08;;;;;;;1.80;1.60;;;17.20;99.90;;;;;;5490060;26;20202;-68
2024/04/11 08:47:39;;;;;;;2.57;1.40;;;17.20;99.90;;;;;;5490149;26;20499;-60
2024/04/11 08:50:06;;;;;;;2.33;1.67;;;17.30;99.90;;;;;;5490070;26;20466;-62
2024/04/11 08:52:36;;;;;;;3.10;1.93;;;17.40;99.90;;;;;;5486778;26;20588;-63
2024/04/11 08:55:02;;;;;;;5.33;1.53;;;17.50;99.10;;;;;;5488846;26;20462;-62
2024/04/11 08:57:32;;;;;;;3.73;1.60;;;17.50;97.00;;;;;;5489762;26;20489;-66
2024/04/11 09:00:00;;;;;;;2.00;1.60;;;17.60;96.50;;;;;;5489290;26;20553;-63
2024/04/11 09:02:28;;;;;;;3.23;1.20;;;17.60;96.70;;;;;;5488918;26;20439;-64
2024/04/11 09:04:58;;;;;;;3.90;2.33;;;17.50;95.10;;;;;;5486610;26;20443;-64
2024/04/11 09:07:26;;;;;;;2.40;1.60;;;17.40;94.10;;;;;;5489774;26;20455;-64
2024/04/11 09:09:52;;;;;;;2.17;1.40;;;17.30;93.20;;;;;;5489409;26;20505;-64
2024/04/11 09:12:22;;;;;;;2.40;1.20;;;17.30;93.40;;;;;;5489509;26;20958;-64
2024/04/11 09:14:48;;;;;;;4.83;1.40;;;17.30;92.50;;;;;;5489448;26;20511;-64
2024/04/11 09:17:16;;;;;;;5.30;1.60;;;17.40;92.40;;;;;;5489546;26;20447;-66
2024/04/11 09:19:42;;;;;;;3.80;1.53;;;17.60;92.10;;;;;;5489516;26;20451;-62
2024/04/11 09:22:21;;;;;;;1.73;1.20;;;17.70;93.00;;;;;;5489805;26;20563;-63
2024/04/11 09:24:47;;;;;;;1.20;1.10;;;17.90;92.10;;;;;;5489707;26;20508;-65
2024/04/11 09:27:16;;;;;;;4.20;1.70;;;17.80;91.50;;;;;;5489482;26;20455;-64
2024/04/11 09:29:42;;;;;;;3.93;1.50;;;17.90;91.40;;;;;;5489463;26;21014;-67
2024/04/11 09:32:15;;;;;;;2.83;1.43;;;18.00;92.50;;;;;;5489437;26;20455;-65
2024/04/11 09:34:42;;;;;;;3.53;1.67;;;17.90;91.80;;;;;;5489554;26;20205;-65
2024/04/11 09:37:15;;;;;;;1.93;1.70;;;18.10;92.40;;;;;;5489399;26;20450;-65
2024/04/11 09:39:45;;;;;;;2.70;1.60;;;18.10;92.10;;;;;;5489366;26;20556;-64
2024/04/11 09:42:17;;;;;;;3.03;1.87;;;18.30;93.70;;;;;;5489385;26;20446;-65
2024/04/11 09:44:46;;;;;;;3.10;1.60;;;18.50;92.60;;;;;;5489229;26;20447;-65
2024/04/11 09:47:18;;;;;;;4.70;1.80;;;18.50;92.20;;;;;;5488559;26;20499;-63
2024/04/11 09:49:53;;;;;;;3.37;1.97;;;18.60;92.10;;;;;;5489255;26;20958;-65
2024/04/11 09:52:26;;;;;;;3.07;1.77;;;18.70;92.40;;;;;;5488978;26;20450;-65
2024/04/11 09:54:55;;;;;;;2.17;1.63;;;18.70;91.30;;;;;;5488761;26;20515;-66
2024/04/11 09:57:26;;;;;;;2.77;1.50;;;18.70;91.10;;;;;;5488613;26;20430;-67
2024/04/11 09:59:55;;;;;;;3.40;1.80;;;18.80;91.80;;;;;;5489011;26;20443;-64
2024/04/11 10:02:24;;;;;;;1.70;1.57;;;18.90;91.40;;;;;;5488957;26;20823;-64
2024/04/11 10:04:56;;;;;;;3.80;1.80;;;19.10;91.40;;;;;;5488778;26;20459;-65
2024/04/11 10:07:25;;;;;;;4.00;1.60;;;19.50;91.80;;;;;;5488810;26;20495;-64
2024/04/11 10:09:59;;;;;;;1.67;1.57;;;19.50;90.00;;;;;;5488690;26;20491;-68
2024/04/11 10:12:28;;;;;;;1.43;1.30;;;19.60;91.20;;;;;;5488772;26;20753;-67
2024/04/11 10:14:56;;;;;;;2.27;1.43;;;19.40;87.30;;;;;;5488590;26;20447;-62
2024/04/11 10:17:28;;;;;;;16.53;2.47;;;19.30;86.80;;;;;;5488399;26;20446;-70
2024/04/11 10:19:59;;;;;;;2.27;1.73;;;19.50;86.40;;;;;;5488567;26;20444;-67
2024/04/11 10:22:29;;;;;;;2.20;1.43;;;19.40;84.40;;;;;;5488574;26;20451;-68
2024/04/11 10:25:06;;;;;;;2.70;1.30;;;19.20;83.10;;;;;;5488619;26;20514;-64
2024/04/11 10:27:37;;;;;;;3.60;1.40;;;19.40;86.80;;;;;;5488476;26;20450;-65
2024/04/11 10:30:06;;;;;;;1.10;1.00;;;19.60;86.50;;;;;;5488519;26;20482;-72
2024/04/11 10:32:39;;;;;;;1.63;1.10;;;19.80;83.80;;;;;;5488297;26;20495;-63
2024/04/11 10:35:07;;;;;;;1.30;0.90;;;19.70;80.30;;;;;;5487378;26;21083;-60
2024/04/11 10:37:40;;;;;;;3.47;1.50;;;19.90;81.50;;;;;;5488118;26;20458;-68
2024/04/11 10:40:10;;;;;;;2.37;1.10;;;19.90;80.80;;;;;;5488502;26;20490;-70
2024/04/11 10:42:43;;;;;;;1.87;1.30;;;20.00;79.80;;;;;;5488158;26;20822;-72
2024/04/11 10:45:10;;;;;;;1.53;1.10;;;20.10;80.70;;;;;;5488059;26;20816;-65
2024/04/11 10:47:39;;;;;;;2.80;1.10;;;20.00;77.50;;;;;;5488003;26;20491;-68
2024/04/11 10:50:09;;;;;;;1.80;1.00;;;19.90;75.40;;;;;;5488241;26;20454;-67
2024/04/11 10:52:38;;;;;;;1.90;1.03;;;19.90;76.50;;;;;;5488006;26;20446;-66
2024/04/11 10:55:12;;;;;;;2.50;1.30;;;19.80;77.90;;;;;;5487886;26;20958;-66
2024/04/11 10:57:44;;;;;;;2.93;1.13;;;19.60;73.80;;;;;;5487629;26;20478;-66
2024/04/11 11:00:11;;;;;;;1.90;0.90;;;19.60;75.80;;;;;;5490997;26;20447;-66
2024/04/11 11:02:40;;;;;;;1.80;1.00;;;19.60;76.80;;;;;;5490882;26;20448;-66
2024/04/11 11:05:07;;;;;;;2.50;1.20;;;19.60;76.40;;;;;;5490360;26;20498;-66
2024/04/11 11:07:37;;;;;;;2.67;1.10;;;19.40;76.00;;;;;;5490077;26;20491;-66
2024/04/11 11:10:11;;;;;;;2.30;1.57;;;19.40;77.80;;;;;;5490085;26;20458;-66
2024/04/11 11:12:42;;;;;;;3.13;1.43;;;19.50;76.80;;;;;;5490244;26;20494;-66
2024/04/11 11:15:13;;;;;;;2.40;1.63;;;19.50;77.00;;;;;;5490462;26;20494;-67
2024/04/11 11:17:42;;;;;;;2.07;1.40;;;19.50;75.40;;;;;;5490461;26;20819;-66
2024/04/11 11:20:09;;;;;;;1.50;1.30;;;19.30;75.90;;;;;;5491401;26;20550;-66
2024/04/11 11:22:40;;;;;;;1.33;1.10;;;19.20;74.70;;;;;;5491338;26;20503;-66
2024/04/11 11:25:08;;;;;;;1.80;1.40;;;19.20;76.00;;;;;;5491518;26;20443;-66
2024/04/11 11:27:38;;;;;;;1.10;1.00;;;19.30;77.60;;;;;;5491358;26;20562;-66
2024/04/11 11:30:06;;;;;;;1.93;1.40;;;19.30;75.90;;;;;;5491379;26;20819;-66
2024/04/11 11:32:37;;;;;;;2.27;1.40;;;19.20;75.40;;;;;;5491440;26;20455;-66
2024/04/11 11:35:05;;;;;;;1.67;1.57;;;19.20;75.70;;;;;;5491193;26;20439;-66
2024/04/11 11:37:33;;;;;;;1.50;1.30;;;19.10;77.10;;;;;;5491225;26;20442;-66
2024/04/11 11:40:32;;;;;;;2.70;1.37;;;19.20;76.90;;;;;;5491008;26;20455;-66
2024/04/11 11:42:53;;;;;;;3.40;1.27;;;19.10;76.70;;;;;;5491379;26;20447;-66
2024/04/11 11:45:26;;;;;;;1.60;1.07;;;19.00;76.20;;;;;;5491259;26;20835;-66
2024/04/11 11:48:12;;;;;;;2.40;1.00;;;18.90;73.90;;;;;;5491319;26;20447;-67
2024/04/11 11:50:38;;;;;;;1.33;1.20;;;18.90;74.90;;;;;;5490664;26;21022;-66
2024/04/11 11:53:24;;;;;;;2.67;1.10;;;18.90;75.70;;;;;;5490907;26;20503;-65
2024/04/11 11:55:55;;;;;;;3.10;1.07;;;19.10;74.40;;;;;;5490580;26;20451;-70
2024/04/11 11:58:24;;;;;;;2.40;1.30;;;19.20;75.60;;;;;;5490638;26;20950;-69
2024/04/11 12:00:50;;;;;;;1.57;1.03;;;19.20;76.00;;;;;;5490465;26;20451;-67
2024/04/11 12:03:21;;;;;;;2.00;1.30;;;19.40;76.40;;;;;;5490437;26;20495;-69
2024/04/11 12:05:50;;;;;;;1.53;1.20;;;19.50;74.10;;;;;;5490433;26;20210;-67
2024/04/11 12:08:19;;;;;;;2.40;1.50;;;19.70;74.80;;;;;;5490109;26;20443;-67
2024/04/11 12:11:14;;;;;;;2.13;1.60;;;19.70;74.60;;;;;;5489876;26;20568;-67
2024/04/11 12:13:45;;;;;;;4.57;1.17;;;19.70;75.00;;;;;;5490485;26;20767;-68
2024/04/11 12:16:15;;;;;;;1.20;1.00;;;19.80;73.30;;;;;;5490509;26;20486;-69
2024/04/11 12:18:48;;;;;;;3.97;1.20;;;19.90;74.10;;;;;;5490104;26;20510;-72
2024/04/11 12:21:13;;;;;;;1.93;1.60;;;20.10;74.10;;;;;;5490333;26;20772;-73
2024/04/11 12:23:43;;;;;;;1.83;1.07;;;20.20;73.30;;;;;;5490312;26;20447;-74
2024/04/11 12:26:11;;;;;;;3.43;1.83;;;20.00;71.90;;;;;;5490228;26;21271;-67
2024/04/11 12:28:45;;;;;;;2.13;1.20;;;20.00;71.20;;;;;;5490077;26;20495;-65
2024/04/11 12:31:15;;;;;;;1.93;0.97;;;19.90;73.10;;;;;;5490019;26;20529;-65
2024/04/11 12:33:46;;;;;;;1.20;1.00;;;19.90;73.00;;;;;;5490306;26;21033;-64
2024/04/11 12:39:03;;;;;;;5.87;1.80;;;19.90;74.30;;;;;;5490108;26;20431;-64
2024/04/11 12:41:29;;;;;;;2.33;1.10;;;19.80;71.30;;;;;;5490241;26;20450;-64
2024/04/11 12:43:57;;;;;;;2.10;1.40;;;19.80;71.10;;;;;;5489510;26;20565;-65
2024/04/11 12:46:23;;;;;;;5.30;1.37;;;19.80;71.70;;;;;;5489842;26;20210;-64
2024/04/11 12:48:56;;;;;;;1.97;1.10;;;19.80;72.20;;;;;;5490008;26;20511;-65
2024/04/11 12:51:26;;;;;;;1.20;0.93;;;19.80;71.20;;;;;;5490081;26;20212;-64
2024/04/11 12:53:56;;;;;;;3.60;2.37;;;19.80;71.30;;;;;;5489877;26;20490;-67
2024/04/11 12:56:23;;;;;;;3.83;2.03;;;19.90;71.40;;;;;;5489481;26;20561;-67
2024/04/11 12:59:00;;;;;;;2.77;2.40;;;19.90;69.40;;;;;;5489674;26;21080;-65
2024/04/11 13:01:25;;;;;;;2.80;1.20;;;19.90;69.90;;;;;;5489626;26;20495;-68